sensor_id;sensor_type;location;lat;lon;timestamp;temperature;humidity
40960;DHT22;27842;52.272;8.052;2023-04-01T00:00:19;10.70;99.90
40960;DHT22;27842;52.272;8.052;2023-04-01T00:02:45;10.70;99.90
40960;DHT22;27842;52.272;8.052;2023-04-01T00:05:11;10.80;99.90
40960;DHT22;27842;52.272;8.052;2023-04-01T00:07:38;10.80;99.90
40960;DHT22;27842;52.272;8.052;2023-04-01T00:10:05;10.80;99.90
40960;DHT22;27842;52.272;8.052;2023-04-01T00:12:31;10.80;99.90
40960;DHT22;27842;52.272;8.052;2023-04-01T00:14:57;10.80;99.90
40960;DHT22;27842;52.272;8.052;2023-04-01T00:17:23;10.70;99.90
40960;DHT22;27842;52.272;8.052;2023-04-01T00:19:49;10.80;99.90
40960;DHT22;27842;52.272;8.052;2023-04-01T00:22:14;10.70;99.90
40960;DHT22;27842;52.272;8.052;2023-04-01T00:24:40;10.70;99.90
40960;DHT22;27842;52.272;8.052;2023-04-01T00:27:05;10.70;99.90
40960;DHT22;27842;52.272;8.052;2023-04-01T00:29:32;10.70;99.90
40960;DHT22;27842;52.272;8.052;2023-04-01T00:31:58;10.70;99.90
40960;DHT22;27842;52.272;8.052;2023-04-01T00:34:23;10.70;99.90
40960;DHT22;27842;52.272;8.052;2023-04-01T00:36:53;10.70;99.90
40960;DHT22;27842;52.272;8.052;2023-04-01T00:39:20;10.70;99.90
40960;DHT22;27842;52.272;8.052;2023-04-01T00:41:46;10.70;99.90
40960;DHT22;27842;52.272;8.052;2023-04-01T00:44:24;10.70;99.90
40960;DHT22;27842;52.272;8.052;2023-04-01T00:46:49;10.70;99.90
40960;DHT22;27842;52.272;8.052;2023-04-01T00:49:22;10.70;99.90
40960;DHT22;27842;52.272;8.052;2023-04-01T00:51:51;10.80;99.90
40960;DHT22;27842;52.272;8.052;2023-04-01T00:54:19;10.70;99.90
40960;DHT22;27842;52.272;8.052;2023-04-01T00:56:49;10.70;99.90
40960;DHT22;27842;52.272;8.052;2023-04-01T00:59:23;10.70;99.90
40960;DHT22;27842;52.272;8.052;2023-04-01T01:01:49;10.70;99.90
40960;DHT22;27842;52.272;8.052;2023-04-01T01:04:26;10.70;99.90
40960;DHT22;27842;52.272;8.052;2023-04-01T01:07:05;10.70;99.90
40960;DHT22;27842;52.272;8.052;2023-04-01T01:10:16;10.70;99.90
40960;DHT22;27842;52.272;8.052;2023-04-01T01:20:24;10.70;99.90
40960;DHT22;27842;52.272;8.052;2023-04-01T01:23:15;10.60;99.90
40960;DHT22;27842;52.272;8.052;2023-04-01T01:28:50;10.60;99.90
40960;DHT22;27842;52.272;8.052;2023-04-01T01:31:36;10.60;99.90
40960;DHT22;27842;52.272;8.052;2023-04-01T01:36:55;10.60;99.90
40960;DHT22;27842;52.272;8.052;2023-04-01T01:39:24;10.60;99.90
40960;DHT22;27842;52.272;8.052;2023-04-01T01:41:54;10.60;99.90
40960;DHT22;27842;52.272;8.052;2023-04-01T01:44:21;10.60;99.90
40960;DHT22;27842;52.272;8.052;2023-04-01T01:46:48;10.60;99.90
40960;DHT22;27842;52.272;8.052;2023-04-01T01:49:18;10.60;99.90
40960;DHT22;27842;52.272;8.052;2023-04-01T01:51:45;10.60;99.90
40960;DHT22;27842;52.272;8.052;2023-04-01T01:54:16;10.60;99.90
40960;DHT22;27842;52.272;8.052;2023-04-01T01:56:45;10.60;99.90
40960;DHT22;27842;52.272;8.052;2023-04-01T01:59:13;10.60;99.90
40960;DHT22;27842;52.272;8.052;2023-04-01T02:01:42;10.60;99.90
40960;DHT22;27842;52.272;8.052;2023-04-01T02:04:11;10.60;99.90
40960;DHT22;27842;52.272;8.052;2023-04-01T02:06:41;10.70;99.90
40960;DHT22;27842;52.272;8.052;2023-04-01T02:09:10;10.60;99.90
40960;DHT22;27842;52.272;8.052;2023-04-01T02:12:00;10.60;99.90
40960;DHT22;27842;52.272;8.052;2023-04-01T02:17:26;10.60;99.90
40960;DHT22;27842;52.272;8.052;2023-04-01T02:20:21;10.60;99.90
40960;DHT22;27842;52.272;8.052;2023-04-01T02:22:51;10.50;99.90
40960;DHT22;27842;52.272;8.052;2023-04-01T02:25:29;10.50;99.90
40960;DHT22;27842;52.272;8.052;2023-04-01T02:27:57;10.50;99.90
40960;DHT22;27842;52.272;8.052;2023-04-01T02:30:26;10.50;99.90
40960;DHT22;27842;52.272;8.052;2023-04-01T02:32:53;10.60;99.90
40960;DHT22;27842;52.272;8.052;2023-04-01T02:35:20;10.50;99.90
40960;DHT22;27842;52.272;8.052;2023-04-01T02:37:46;10.60;99.90
40960;DHT22;27842;52.272;8.052;2023-04-01T02:40:15;10.50;99.90
40960;DHT22;27842;52.272;8.052;2023-04-01T02:42:41;10.50;99.90
40960;DHT22;27842;52.272;8.052;2023-04-01T02:45:07;10.50;99.90
40960;DHT22;27842;52.272;8.052;2023-04-01T02:47:33;10.50;99.90
40960;DHT22;27842;52.272;8.052;2023-04-01T02:50:05;10.50;99.90
40960;DHT22;27842;52.272;8.052;2023-04-01T02:52:31;10.50;99.90
40960;DHT22;27842;52.272;8.052;2023-04-01T02:54:57;10.50;99.90
40960;DHT22;27842;52.272;8.052;2023-04-01T02:57:24;10.50;99.90
40960;DHT22;27842;52.272;8.052;2023-04-01T02:59:50;10.50;99.90
40960;DHT22;27842;52.272;8.052;2023-04-01T03:02:16;10.50;99.90
40960;DHT22;27842;52.272;8.052;2023-04-01T03:04:42;10.50;99.90
40960;DHT22;27842;52.272;8.052;2023-04-01T03:07:08;10.50;99.90
40960;DHT22;27842;52.272;8.052;2023-04-01T03:09:35;10.50;99.90
40960;DHT22;27842;52.272;8.052;2023-04-01T03:12:01;10.50;99.90
40960;DHT22;27842;52.272;8.052;2023-04-01T03:14:27;10.40;99.90
40960;DHT22;27842;52.272;8.052;2023-04-01T03:16:52;10.50;99.90
40960;DHT22;27842;52.272;8.052;2023-04-01T03:19:24;10.50;99.90
40960;DHT22;27842;52.272;8.052;2023-04-01T03:21:50;10.50;99.90
40960;DHT22;27842;52.272;8.052;2023-04-01T03:24:15;10.50;99.90
40960;DHT22;27842;52.272;8.052;2023-04-01T03:26:41;10.50;99.90
40960;DHT22;27842;52.272;8.052;2023-04-01T03:29:07;10.50;99.90
40960;DHT22;27842;52.272;8.052;2023-04-01T03:31:32;10.50;99.90
40960;DHT22;27842;52.272;8.052;2023-04-01T03:33:58;10.50;99.90
40960;DHT22;27842;52.272;8.052;2023-04-01T03:36:23;10.50;99.90
40960;DHT22;27842;52.272;8.052;2023-04-01T03:38:49;10.50;99.90
40960;DHT22;27842;52.272;8.052;2023-04-01T03:41:16;10.50;99.90
40960;DHT22;27842;52.272;8.052;2023-04-01T03:43:42;10.50;99.90
40960;DHT22;27842;52.272;8.052;2023-04-01T03:46:08;10.50;99.90
40960;DHT22;27842;52.272;8.052;2023-04-01T03:48:34;10.50;99.90
40960;DHT22;27842;52.272;8.052;2023-04-01T03:50:59;10.50;99.90
40960;DHT22;27842;52.272;8.052;2023-04-01T03:53:25;10.50;99.90
40960;DHT22;27842;52.272;8.052;2023-04-01T03:55:52;10.50;99.90
40960;DHT22;27842;52.272;8.052;2023-04-01T03:58:17;10.50;99.90
40960;DHT22;27842;52.272;8.052;2023-04-01T04:00:43;10.50;99.90
40960;DHT22;27842;52.272;8.052;2023-04-01T04:03:09;10.50;99.90
40960;DHT22;27842;52.272;8.052;2023-04-01T04:05:34;10.50;99.90
40960;DHT22;27842;52.272;8.052;2023-04-01T04:08:00;10.50;99.90
40960;DHT22;27842;52.272;8.052;2023-04-01T04:10:26;10.50;99.90
40960;DHT22;27842;52.272;8.052;2023-04-01T04:12:52;10.50;99.90
40960;DHT22;27842;52.272;8.052;2023-04-01T04:15:17;10.50;99.90
40960;DHT22;27842;52.272;8.052;2023-04-01T04:17:47;10.50;99.90
40960;DHT22;27842;52.272;8.052;2023-04-01T04:20:13;10.40;99.90
40960;DHT22;27842;52.272;8.052;2023-04-01T04:22:38;10.40;99.90
40960;DHT22;27842;52.272;8.052;2023-04-01T04:25:04;10.30;99.90
40960;DHT22;27842;52.272;8.052;2023-04-01T04:27:30;10.30;99.90
40960;DHT22;27842;52.272;8.052;2023-04-01T04:29:55;10.40;99.90
40960;DHT22;27842;52.272;8.052;2023-04-01T04:32:21;10.30;99.90
40960;DHT22;27842;52.272;8.052;2023-04-01T04:34:47;10.30;99.90
40960;DHT22;27842;52.272;8.052;2023-04-01T04:37:12;10.40;99.90
40960;DHT22;27842;52.272;8.052;2023-04-01T04:39:38;10.40;99.90
40960;DHT22;27842;52.272;8.052;2023-04-01T04:42:04;10.30;99.90
40960;DHT22;27842;52.272;8.052;2023-04-01T04:44:30;10.30;99.90
40960;DHT22;27842;52.272;8.052;2023-04-01T04:46:56;10.30;99.90
40960;DHT22;27842;52.272;8.052;2023-04-01T04:49:27;10.30;99.90
40960;DHT22;27842;52.272;8.052;2023-04-01T04:51:53;10.30;99.90
40960;DHT22;27842;52.272;8.052;2023-04-01T04:54:18;10.30;99.90
40960;DHT22;27842;52.272;8.052;2023-04-01T04:56:44;10.30;99.90
40960;DHT22;27842;52.272;8.052;2023-04-01T04:59:10;10.30;99.90
40960;DHT22;27842;52.272;8.052;2023-04-01T05:01:35;10.30;99.90
40960;DHT22;27842;52.272;8.052;2023-04-01T05:04:01;10.30;99.90
40960;DHT22;27842;52.272;8.052;2023-04-01T05:06:26;10.30;99.90
40960;DHT22;27842;52.272;8.052;2023-04-01T05:08:55;10.30;99.90
40960;DHT22;27842;52.272;8.052;2023-04-01T05:11:21;10.30;99.90
40960;DHT22;27842;52.272;8.052;2023-04-01T05:13:47;10.30;99.90
40960;DHT22;27842;52.272;8.052;2023-04-01T05:16:16;10.30;99.90
40960;DHT22;27842;52.272;8.052;2023-04-01T05:18:42;10.30;99.90
40960;DHT22;27842;52.272;8.052;2023-04-01T05:21:09;10.30;99.90
40960;DHT22;27842;52.272;8.052;2023-04-01T05:23:36;10.30;99.90
40960;DHT22;27842;52.272;8.052;2023-04-01T05:26:05;10.30;99.90
40960;DHT22;27842;52.272;8.052;2023-04-01T05:28:31;10.30;99.90
40960;DHT22;27842;52.272;8.052;2023-04-01T05:31:02;10.30;99.90
40960;DHT22;27842;52.272;8.052;2023-04-01T05:33:29;10.30;99.90
40960;DHT22;27842;52.272;8.052;2023-04-01T05:35:55;10.30;99.90
40960;DHT22;27842;52.272;8.052;2023-04-01T05:38:21;10.30;99.90
40960;DHT22;27842;52.272;8.052;2023-04-01T05:40:46;10.30;99.90
40960;DHT22;27842;52.272;8.052;2023-04-01T05:43:12;10.30;99.90
40960;DHT22;27842;52.272;8.052;2023-04-01T05:45:38;10.30;99.90
40960;DHT22;27842;52.272;8.052;2023-04-01T05:48:04;10.30;99.90
40960;DHT22;27842;52.272;8.052;2023-04-01T05:50:30;10.30;99.90
40960;DHT22;27842;52.272;8.052;2023-04-01T05:52:56;10.30;99.90
40960;DHT22;27842;52.272;8.052;2023-04-01T05:55:21;10.40;99.90
40960;DHT22;27842;52.272;8.052;2023-04-01T05:57:47;10.30;99.90
40960;DHT22;27842;52.272;8.052;2023-04-01T06:00:15;10.30;99.90
40960;DHT22;27842;52.272;8.052;2023-04-01T06:02:42;10.30;99.90
40960;DHT22;27842;52.272;8.052;2023-04-01T06:05:20;10.30;99.90
40960;DHT22;27842;52.272;8.052;2023-04-01T06:07:47;10.30;99.90
40960;DHT22;27842;52.272;8.052;2023-04-01T06:10:18;10.40;99.90
40960;DHT22;27842;52.272;8.052;2023-04-01T06:15:13;10.30;99.90
40960;DHT22;27842;52.272;8.052;2023-04-01T06:20:47;10.30;99.90
40960;DHT22;27842;52.272;8.052;2023-04-01T06:31:46;10.40;99.90
40960;DHT22;27842;52.272;8.052;2023-04-01T06:34:39;10.40;99.90
40960;DHT22;27842;52.272;8.052;2023-04-01T06:54:10;10.40;99.90
40960;DHT22;27842;52.272;8.052;2023-04-01T06:56:40;10.40;99.90
40960;DHT22;27842;52.272;8.052;2023-04-01T06:59:18;10.40;99.90
40960;DHT22;27842;52.272;8.052;2023-04-01T07:01:45;10.40;99.90
40960;DHT22;27842;52.272;8.052;2023-04-01T07:04:16;10.40;99.90
40960;DHT22;27842;52.272;8.052;2023-04-01T07:06:54;10.40;99.90
40960;DHT22;27842;52.272;8.052;2023-04-01T07:09:31;10.40;99.90
40960;DHT22;27842;52.272;8.052;2023-04-01T07:12:01;10.40;99.90
40960;DHT22;27842;52.272;8.052;2023-04-01T07:14:34;10.40;99.90
40960;DHT22;27842;52.272;8.052;2023-04-01T07:17:20;10.40;99.90
40960;DHT22;27842;52.272;8.052;2023-04-01T07:19:52;10.40;99.90
40960;DHT22;27842;52.272;8.052;2023-04-01T07:22:33;10.40;99.90
40960;DHT22;27842;52.272;8.052;2023-04-01T07:25:39;10.40;99.90
40960;DHT22;27842;52.272;8.052;2023-04-01T07:28:15;10.40;99.90
40960;DHT22;27842;52.272;8.052;2023-04-01T07:39:04;10.50;99.90
40960;DHT22;27842;52.272;8.052;2023-04-01T07:42:10;10.50;99.90
40960;DHT22;27842;52.272;8.052;2023-04-01T07:47:55;10.50;99.90
40960;DHT22;27842;52.272;8.052;2023-04-01T07:50:41;10.50;99.90
40960;DHT22;27842;52.272;8.052;2023-04-01T07:53:44;10.60;99.90
40960;DHT22;27842;52.272;8.052;2023-04-01T07:56:47;10.60;99.90
40960;DHT22;27842;52.272;8.052;2023-04-01T07:59:21;10.60;99.90
40960;DHT22;27842;52.272;8.052;2023-04-01T08:02:06;10.60;99.90
40960;DHT22;27842;52.272;8.052;2023-04-01T08:04:57;10.60;99.90
40960;DHT22;27842;52.272;8.052;2023-04-01T08:10:27;10.60;99.90
40960;DHT22;27842;52.272;8.052;2023-04-01T08:16:13;10.70;99.90
40960;DHT22;27842;52.272;8.052;2023-04-01T08:21:49;10.70;99.90
40960;DHT22;27842;52.272;8.052;2023-04-01T08:24:39;10.80;99.90
40960;DHT22;27842;52.272;8.052;2023-04-01T08:27:12;10.80;99.90
40960;DHT22;27842;52.272;8.052;2023-04-01T08:29:53;10.80;99.90
40960;DHT22;27842;52.272;8.052;2023-04-01T08:32:27;10.90;99.90
40960;DHT22;27842;52.272;8.052;2023-04-01T08:35:18;10.90;99.90
40960;DHT22;27842;52.272;8.052;2023-04-01T08:37:45;10.90;99.90
40960;DHT22;27842;52.272;8.052;2023-04-01T08:46:27;11.00;99.90
40960;DHT22;27842;52.272;8.052;2023-04-01T08:52:06;11.00;99.90
40960;DHT22;27842;52.272;8.052;2023-04-01T08:57:44;11.00;99.90
40960;DHT22;27842;52.272;8.052;2023-04-01T09:00:20;11.00;99.90
40960;DHT22;27842;52.272;8.052;2023-04-01T09:03:34;11.00;99.90
40960;DHT22;27842;52.272;8.052;2023-04-01T09:06:24;10.90;99.90
40960;DHT22;27842;52.272;8.052;2023-04-01T09:14:52;10.90;99.90
40960;DHT22;27842;52.272;8.052;2023-04-01T09:17:51;11.00;99.90
40960;DHT22;27842;52.272;8.052;2023-04-01T09:29:05;11.10;99.90
40960;DHT22;27842;52.272;8.052;2023-04-01T09:37:20;11.20;99.90
40960;DHT22;27842;52.272;8.052;2023-04-01T09:40:15;11.20;99.90
40960;DHT22;27842;52.272;8.052;2023-04-01T09:42:56;11.20;99.90
40960;DHT22;27842;52.272;8.052;2023-04-01T09:51:22;11.30;99.90
40960;DHT22;27842;52.272;8.052;2023-04-01T10:19:37;11.40;99.90
40960;DHT22;27842;52.272;8.052;2023-04-01T10:22:17;11.40;99.90
40960;DHT22;27842;52.272;8.052;2023-04-01T10:25:00;11.50;99.90
40960;DHT22;27842;52.272;8.052;2023-04-01T10:27:55;11.50;99.90
40960;DHT22;27842;52.272;8.052;2023-04-01T10:53:58;11.90;99.90
40960;DHT22;27842;52.272;8.052;2023-04-01T11:13:56;12.00;99.90
40960;DHT22;27842;52.272;8.052;2023-04-01T11:22:06;11.90;99.90
40960;DHT22;27842;52.272;8.052;2023-04-01T11:25:03;12.00;99.90
40960;DHT22;27842;52.272;8.052;2023-04-01T11:33:05;12.00;99.90
40960;DHT22;27842;52.272;8.052;2023-04-01T11:35:39;12.00;99.90
40960;DHT22;27842;52.272;8.052;2023-04-01T11:38:26;12.00;99.90
40960;DHT22;27842;52.272;8.052;2023-04-01T11:41:02;12.00;99.90
40960;DHT22;27842;52.272;8.052;2023-04-01T11:43:43;12.00;99.90
40960;DHT22;27842;52.272;8.052;2023-04-01T11:46:25;12.00;99.90
40960;DHT22;27842;52.272;8.052;2023-04-01T12:06:02;12.00;99.90
40960;DHT22;27842;52.272;8.052;2023-04-01T12:13:50;12.00;99.90
40960;DHT22;27842;52.272;8.052;2023-04-01T12:22:03;11.90;99.90
40960;DHT22;27842;52.272;8.052;2023-04-01T12:32:55;11.80;99.90
40960;DHT22;27842;52.272;8.052;2023-04-01T12:38:44;11.80;99.90
40960;DHT22;27842;52.272;8.052;2023-04-01T12:50:28;11.70;99.90
40960;DHT22;27842;52.272;8.052;2023-04-01T12:55:39;11.70;99.90
40960;DHT22;27842;52.272;8.052;2023-04-01T12:58:36;11.70;99.90
40960;DHT22;27842;52.272;8.052;2023-04-01T13:01:21;11.70;99.90
40960;DHT22;27842;52.272;8.052;2023-04-01T13:17:57;11.80;99.90
40960;DHT22;27842;52.272;8.052;2023-04-01T13:20:34;11.80;99.90
40960;DHT22;27842;52.272;8.052;2023-04-01T13:23:11;11.80;99.90
40960;DHT22;27842;52.272;8.052;2023-04-01T13:28:25;11.80;99.90
40960;DHT22;27842;52.272;8.052;2023-04-01T13:31:17;11.80;99.90
40960;DHT22;27842;52.272;8.052;2023-04-01T13:34:14;11.80;99.90
40960;DHT22;27842;52.272;8.052;2023-04-01T13:42:28;11.90;99.90
40960;DHT22;27842;52.272;8.052;2023-04-01T13:45:22;11.90;99.90
40960;DHT22;27842;52.272;8.052;2023-04-01T13:48:18;12.00;99.90
40960;DHT22;27842;52.272;8.052;2023-04-01T13:59:35;12.10;99.90
40960;DHT22;27842;52.272;8.052;2023-04-01T14:05:36;12.20;99.90
40960;DHT22;27842;52.272;8.052;2023-04-01T14:11:24;12.20;99.90
40960;DHT22;27842;52.272;8.052;2023-04-01T14:23:03;12.20;99.90
40960;DHT22;27842;52.272;8.052;2023-04-01T14:25:31;12.10;99.90
40960;DHT22;27842;52.272;8.052;2023-04-01T14:28:30;12.10;99.90
40960;DHT22;27842;52.272;8.052;2023-04-01T14:34:16;12.00;99.90
40960;DHT22;27842;52.272;8.052;2023-04-01T14:43:14;11.90;99.90
40960;DHT22;27842;52.272;8.052;2023-04-01T14:49:14;11.90;99.90
40960;DHT22;27842;52.272;8.052;2023-04-01T14:51:41;11.90;99.90
40960;DHT22;27842;52.272;8.052;2023-04-01T14:54:19;11.90;99.90
40960;DHT22;27842;52.272;8.052;2023-04-01T14:57:22;11.90;99.90
40960;DHT22;27842;52.272;8.052;2023-04-01T15:16:31;11.80;99.90
40960;DHT22;27842;52.272;8.052;2023-04-01T15:27:36;11.70;99.90
40960;DHT22;27842;52.272;8.052;2023-04-01T15:32:59;11.80;99.90
40960;DHT22;27842;52.272;8.052;2023-04-01T15:51:38;11.50;99.90
40960;DHT22;27842;52.272;8.052;2023-04-01T15:54:53;11.50;99.90
40960;DHT22;27842;52.272;8.052;2023-04-01T15:57:28;11.40;99.90
40960;DHT22;27842;52.272;8.052;2023-04-01T16:03:36;11.30;99.90
40960;DHT22;27842;52.272;8.052;2023-04-01T16:08:55;11.20;99.90
40960;DHT22;27842;52.272;8.052;2023-04-01T16:20:14;10.90;99.90
40960;DHT22;27842;52.272;8.052;2023-04-01T16:23:11;10.90;99.90
40960;DHT22;27842;52.272;8.052;2023-04-01T16:25:45;10.90;99.90
40960;DHT22;27842;52.272;8.052;2023-04-01T16:28:26;10.80;99.90
40960;DHT22;27842;52.272;8.052;2023-04-01T16:31:04;10.80;99.90
40960;DHT22;27842;52.272;8.052;2023-04-01T16:33:51;10.70;99.90
40960;DHT22;27842;52.272;8.052;2023-04-01T16:36:34;10.70;99.90
40960;DHT22;27842;52.272;8.052;2023-04-01T16:45:56;10.50;99.90
40960;DHT22;27842;52.272;8.052;2023-04-01T16:47:56;10.50;99.90
40960;DHT22;27842;52.272;8.052;2023-04-01T16:50:30;10.50;99.90
40960;DHT22;27842;52.272;8.052;2023-04-01T16:53:14;10.50;99.90
40960;DHT22;27842;52.272;8.052;2023-04-01T16:56:07;10.40;99.90
40960;DHT22;27842;52.272;8.052;2023-04-01T16:58:42;10.40;99.90
40960;DHT22;27842;52.272;8.052;2023-04-01T17:01:30;10.40;99.90
40960;DHT22;27842;52.272;8.052;2023-04-01T17:04:04;10.30;99.90
40960;DHT22;27842;52.272;8.052;2023-04-01T17:06:43;10.30;99.90
40960;DHT22;27842;52.272;8.052;2023-04-01T17:15:21;10.30;99.90
40960;DHT22;27842;52.272;8.052;2023-04-01T17:20:48;10.20;99.90
40960;DHT22;27842;52.272;8.052;2023-04-01T17:29:12;9.90;99.90
40960;DHT22;27842;52.272;8.052;2023-04-01T17:32:06;10.00;99.90
40960;DHT22;27842;52.272;8.052;2023-04-01T17:34:57;9.90;99.90
40960;DHT22;27842;52.272;8.052;2023-04-01T17:45:58;9.90;99.90
40960;DHT22;27842;52.272;8.052;2023-04-01T17:48:38;9.80;99.90
40960;DHT22;27842;52.272;8.052;2023-04-01T18:02:37;9.70;99.90
40960;DHT22;27842;52.272;8.052;2023-04-01T18:21:59;9.50;99.90
40960;DHT22;27842;52.272;8.052;2023-04-01T18:24:17;9.40;99.90
40960;DHT22;27842;52.272;8.052;2023-04-01T18:27:06;9.40;99.90
40960;DHT22;27842;52.272;8.052;2023-04-01T18:29:51;9.30;99.90
40960;DHT22;27842;52.272;8.052;2023-04-01T18:35:19;9.30;99.90
40960;DHT22;27842;52.272;8.052;2023-04-01T18:38:07;9.40;99.90
40960;DHT22;27842;52.272;8.052;2023-04-01T18:43:26;9.30;99.90
40960;DHT22;27842;52.272;8.052;2023-04-01T18:46:00;9.20;99.90
40960;DHT22;27842;52.272;8.052;2023-04-01T18:54:05;9.10;99.90
40960;DHT22;27842;52.272;8.052;2023-04-01T18:56:37;9.10;99.90
40960;DHT22;27842;52.272;8.052;2023-04-01T18:59:23;9.00;99.90
40960;DHT22;27842;52.272;8.052;2023-04-01T19:04:37;9.10;99.90
40960;DHT22;27842;52.272;8.052;2023-04-01T19:07:47;9.10;99.90
40960;DHT22;27842;52.272;8.052;2023-04-01T19:10:26;9.10;99.90
40960;DHT22;27842;52.272;8.052;2023-04-01T19:16:09;9.00;99.90
40960;DHT22;27842;52.272;8.052;2023-04-01T19:21:28;8.90;99.90
40960;DHT22;27842;52.272;8.052;2023-04-01T19:32:51;8.80;99.90
40960;DHT22;27842;52.272;8.052;2023-04-01T19:35:36;8.80;99.90
40960;DHT22;27842;52.272;8.052;2023-04-01T19:38:21;8.80;99.90
40960;DHT22;27842;52.272;8.052;2023-04-01T19:41:01;8.80;99.90
40960;DHT22;27842;52.272;8.052;2023-04-01T19:43:50;8.80;99.90
40960;DHT22;27842;52.272;8.052;2023-04-01T19:46:28;8.70;99.90
40960;DHT22;27842;52.272;8.052;2023-04-01T19:49:02;8.70;99.90
40960;DHT22;27842;52.272;8.052;2023-04-01T19:57:52;8.70;99.90
40960;DHT22;27842;52.272;8.052;2023-04-01T20:00:34;8.70;99.90
40960;DHT22;27842;52.272;8.052;2023-04-01T20:08:22;8.70;99.90
40960;DHT22;27842;52.272;8.052;2023-04-01T20:17:07;8.50;99.90
40960;DHT22;27842;52.272;8.052;2023-04-01T20:25:23;8.40;99.90
40960;DHT22;27842;52.272;8.052;2023-04-01T20:42:39;8.30;99.90
40960;DHT22;27842;52.272;8.052;2023-04-01T20:45:32;8.20;99.90
40960;DHT22;27842;52.272;8.052;2023-04-01T20:50:28;8.20;99.90
40960;DHT22;27842;52.272;8.052;2023-04-01T20:53:20;8.10;99.90
40960;DHT22;27842;52.272;8.052;2023-04-01T20:58:24;8.20;99.90
40960;DHT22;27842;52.272;8.052;2023-04-01T21:01:07;8.10;99.90
40960;DHT22;27842;52.272;8.052;2023-04-01T21:03:45;8.00;99.90
40960;DHT22;27842;52.272;8.052;2023-04-01T21:06:53;8.00;99.90
40960;DHT22;27842;52.272;8.052;2023-04-01T21:09:38;8.00;99.90
40960;DHT22;27842;52.272;8.052;2023-04-01T21:12:13;7.90;99.90
40960;DHT22;27842;52.272;8.052;2023-04-01T21:17:45;7.90;99.90
40960;DHT22;27842;52.272;8.052;2023-04-01T21:20:43;7.80;99.90
40960;DHT22;27842;52.272;8.052;2023-04-01T21:23:42;7.90;99.90
40960;DHT22;27842;52.272;8.052;2023-04-01T21:26:26;7.80;99.90
40960;DHT22;27842;52.272;8.052;2023-04-01T21:29:39;7.90;99.90
40960;DHT22;27842;52.272;8.052;2023-04-01T21:35:17;7.80;99.90
40960;DHT22;27842;52.272;8.052;2023-04-01T21:38:15;7.80;99.90
40960;DHT22;27842;52.272;8.052;2023-04-01T21:43:34;7.70;99.90
40960;DHT22;27842;52.272;8.052;2023-04-01T21:46:26;7.70;99.90
40960;DHT22;27842;52.272;8.052;2023-04-01T22:01:17;7.70;99.90
40960;DHT22;27842;52.272;8.052;2023-04-01T22:06:41;7.50;99.90
40960;DHT22;27842;52.272;8.052;2023-04-01T22:09:10;7.50;99.90
40960;DHT22;27842;52.272;8.052;2023-04-01T22:11:58;7.40;99.90
40960;DHT22;27842;52.272;8.052;2023-04-01T22:14:46;7.50;99.90
40960;DHT22;27842;52.272;8.052;2023-04-01T22:28:22;7.30;99.90
40960;DHT22;27842;52.272;8.052;2023-04-01T22:30:55;7.30;99.90
40960;DHT22;27842;52.272;8.052;2023-04-01T22:36:46;7.20;99.90
40960;DHT22;27842;52.272;8.052;2023-04-01T22:51:01;7.20;99.90
40960;DHT22;27842;52.272;8.052;2023-04-01T22:53:56;7.20;99.90
40960;DHT22;27842;52.272;8.052;2023-04-01T22:57:14;7.10;99.90
40960;DHT22;27842;52.272;8.052;2023-04-01T22:59:26;7.00;99.90
40960;DHT22;27842;52.272;8.052;2023-04-01T23:01:59;7.00;99.90
40960;DHT22;27842;52.272;8.052;2023-04-01T23:04:32;7.00;99.90
40960;DHT22;27842;52.272;8.052;2023-04-01T23:07:03;7.00;99.90
40960;DHT22;27842;52.272;8.052;2023-04-01T23:09:33;7.00;99.90
40960;DHT22;27842;52.272;8.052;2023-04-01T23:12:09;7.00;99.90
40960;DHT22;27842;52.272;8.052;2023-04-01T23:15:05;7.00;99.90
40960;DHT22;27842;52.272;8.052;2023-04-01T23:29:14;6.90;99.90
40960;DHT22;27842;52.272;8.052;2023-04-01T23:31:42;6.90;99.90
40960;DHT22;27842;52.272;8.052;2023-04-01T23:36:49;6.80;99.90
40960;DHT22;27842;52.272;8.052;2023-04-01T23:39:37;6.80;99.90
40960;DHT22;27842;52.272;8.052;2023-04-01T23:42:06;6.70;99.90
40960;DHT22;27842;52.272;8.052;2023-04-01T23:44:33;6.80;99.90
40960;DHT22;27842;52.272;8.052;2023-04-01T23:47:01;6.90;99.90
40960;DHT22;27842;52.272;8.052;2023-04-01T23:49:37;6.80;99.90
40960;DHT22;27842;52.272;8.052;2023-04-01T23:52:57;6.70;99.90
40960;DHT22;27842;52.272;8.052;2023-04-01T23:55:23;6.70;99.90
40960;DHT22;27842;52.272;8.052;2023-04-01T23:58:16;6.70;99.90
